Delta Virtual Airport Information Service

Punta Gorda Airport

ICAO: KPGD Country: United States
Latitude: 26.9189 Longitude: -81.9908
Latest Arrival : DAC2223 (KTOL-KPGD) Latest Departure : AAY1512 (A) (KPGD-KTOL)


WX CaptureLIVE
Data provided by noaa.gov | Fetched at 18:32:55

METAR : KPGD 172153Z 26012KT 10SM BKN036 BKN045 32/24 A2996 RMK AO2 LTG DSNT N AND NE SLP143 T03220244

TAF : KPGD 172153Z 26012KT 10SM BKN036 BKN045 32/24 A2996 RMK AO2 LTG DSNT N AND NE SLP143 T03220244


Runway Data for KPGD
Data provided by openaviationdata.com

Runway ID Mag Var Hdg Length Elevation Surface ILS Freq ILS Id ILS Slope
3 -2 31° 6594 ft 25 ft Asphalt -- -- --
9 -2 92° 4588 ft 25 ft Asphalt -- -- --
15 -2 152° 5138 ft 25 ft Asphalt -- -- --
21 -2 211° 6594 ft 25 ft Asphalt -- -- --
27 -2 272° 4588 ft 25 ft Asphalt -- -- --
33 -2 332° 5138 ft 25 ft Asphalt -- -- --

Punta Gorda Airport, United States
Use only for reference purposes



Not for navigational purposes.